createdAt,value
2023-05-22T00:00:25.037Z,99291.41
2023-05-22T00:01:07.172Z,99302.03
2023-05-22T00:01:49.364Z,99308.06
2023-05-22T00:02:33.033Z,99324.56
2023-05-22T00:03:14.920Z,99315.84
2023-05-22T00:03:57.032Z,99312.94
2023-05-22T00:04:40.053Z,99327.00
2023-05-22T00:05:21.929Z,99322.91
2023-05-22T00:06:03.833Z,99329.56
2023-05-22T00:06:45.515Z,99258.41
2023-05-22T00:07:27.556Z,99322.38
2023-05-22T00:08:11.740Z,99326.41
2023-05-22T00:08:53.421Z,99294.22
2023-05-22T00:09:35.142Z,99328.03
2023-05-22T00:10:16.896Z,99324.31
2023-05-22T00:11:04.048Z,99316.44
2023-05-22T00:11:45.943Z,99308.72
2023-05-22T00:12:27.680Z,99324.00
2023-05-22T00:13:09.367Z,99323.88
2023-05-22T00:13:51.287Z,99303.06
2023-05-22T00:14:32.921Z,99323.41
2023-05-22T00:15:14.757Z,99268.28
2023-05-22T00:15:56.577Z,99308.19
2023-05-22T00:16:38.267Z,99313.41
2023-05-22T00:17:20.405Z,99334.94
2023-05-22T00:18:02.205Z,99319.56
2023-05-22T00:18:44.618Z,99326.78
2023-05-22T00:19:26.373Z,99298.53
2023-05-22T00:20:10.594Z,99326.19
2023-05-22T00:20:58.227Z,99329.69
2023-05-22T00:21:39.980Z,99300.97
2023-05-22T00:22:21.814Z,99327.81
2023-05-22T00:23:03.446Z,99332.34
2023-05-22T00:23:47.624Z,99301.19
2023-05-22T00:24:29.386Z,99320.03
2023-05-22T00:25:11.354Z,99330.16
2023-05-22T00:25:54.122Z,99317.47
2023-05-22T00:26:35.817Z,99328.53
2023-05-22T00:27:17.618Z,99280.25
2023-05-22T00:28:00.611Z,99322.00
2023-05-22T00:28:43.140Z,99317.44
2023-05-22T00:29:24.843Z,99291.00
2023-05-22T00:30:07.656Z,99320.91
2023-05-22T00:30:49.449Z,99292.78
2023-05-22T00:31:31.652Z,99319.00
2023-05-22T00:32:14.269Z,99307.78
2023-05-22T00:32:56.800Z,99288.13
2023-05-22T00:33:38.464Z,99305.09
2023-05-22T00:34:20.400Z,99315.56
2023-05-22T00:35:02.342Z,99311.03
2023-05-22T00:35:44.042Z,99273.56
2023-05-22T00:36:25.741Z,99281.03
2023-05-22T00:37:07.506Z,99257.78
2023-05-22T00:37:49.228Z,99256.16
2023-05-22T00:38:35.394Z,99275.63
2023-05-22T00:39:17.371Z,99297.25
2023-05-22T00:39:59.040Z,99315.78
2023-05-22T00:40:43.444Z,99285.16
2023-05-22T00:41:27.765Z,99292.28
2023-05-22T00:42:09.496Z,99279.66
2023-05-22T00:42:51.151Z,99315.88
2023-05-22T00:43:34.038Z,99304.13
2023-05-22T00:44:19.874Z,99280.72
2023-05-22T00:45:01.562Z,99275.13
2023-05-22T00:45:47.620Z,99254.88
2023-05-22T00:46:29.772Z,99319.59
2023-05-22T00:47:12.536Z,99275.38
2023-05-22T00:47:56.493Z,99302.41
2023-05-22T00:48:38.287Z,99318.56
2023-05-22T00:49:20.038Z,99290.25
2023-05-22T00:50:02.194Z,99318.00
2023-05-22T00:50:44.064Z,99319.84
2023-05-22T00:51:26.164Z,99314.72
2023-05-22T00:52:09.059Z,99308.44
2023-05-22T00:52:50.735Z,99286.28
2023-05-22T00:53:32.645Z,99291.53
2023-05-22T00:54:15.296Z,99302.56
2023-05-22T00:54:57.091Z,99314.22
2023-05-22T00:55:38.773Z,99298.50
2023-05-22T00:56:21.855Z,99281.63
2023-05-22T00:57:04.488Z,99290.81
2023-05-22T00:57:46.365Z,99307.72
2023-05-22T00:58:28.257Z,99310.59
2023-05-22T00:59:10.401Z,99302.00
2023-05-22T00:59:52.272Z,99296.75
2023-05-22T01:00:39.794Z,99264.38
2023-05-22T01:01:23.151Z,99300.91
2023-05-22T01:02:05.248Z,99307.56
2023-05-22T01:02:47.448Z,99300.47
2023-05-22T01:03:29.934Z,99296.16
2023-05-22T01:04:12.630Z,99314.09
2023-05-22T01:04:58.083Z,99313.50
2023-05-22T01:05:40.820Z,99307.19
2023-05-22T01:06:25.104Z,99305.00
2023-05-22T01:07:06.898Z,99306.97
2023-05-22T01:07:48.644Z,99306.97
2023-05-22T01:08:30.447Z,99313.72
2023-05-22T01:09:12.180Z,99285.78
2023-05-22T01:09:54.078Z,99316.16
2023-05-22T01:10:39.061Z,99315.13
2023-05-22T01:11:35.202Z,99313.50
2023-05-22T01:12:49.237Z,99320.47
2023-05-22T01:13:48.392Z,99315.13
2023-05-22T01:14:44.019Z,99309.84
2023-05-22T01:15:49.963Z,99309.75
2023-05-22T01:16:50.701Z,99309.81
2023-05-22T01:17:35.624Z,99309.25
2023-05-22T01:18:31.749Z,99315.84
2023-05-22T01:19:42.306Z,99316.44
2023-05-22T01:20:39.518Z,99319.13
2023-05-22T01:21:32.911Z,99317.81
2023-05-22T01:22:50.051Z,99309.81
2023-05-22T01:24:11.766Z,99300.66
2023-05-22T01:25:11.939Z,99317.38
2023-05-22T01:26:19.062Z,99315.53
2023-05-22T01:27:19.587Z,99307.06
2023-05-22T01:28:22.760Z,99305.66
2023-05-22T01:29:34.891Z,99313.00
2023-05-22T01:30:54.666Z,99315.53
2023-05-22T01:31:45.825Z,99310.50
2023-05-22T01:32:29.806Z,99305.56
2023-05-22T01:33:15.177Z,99304.38
2023-05-22T01:34:01.678Z,99305.72
2023-05-22T01:34:47.605Z,99319.66
2023-05-22T01:35:33.464Z,99323.22
2023-05-22T01:36:20.350Z,99323.09
2023-05-22T01:37:04.041Z,99316.78
2023-05-22T01:37:46.766Z,99310.28
2023-05-22T01:38:29.617Z,99323.97
2023-05-22T01:39:12.605Z,99319.81
2023-05-22T01:39:55.947Z,99317.75
2023-05-22T01:40:38.859Z,99324.25
2023-05-22T01:41:21.640Z,99319.28
2023-05-22T01:42:06.892Z,99323.38
2023-05-22T01:42:49.649Z,99325.81
2023-05-22T01:43:32.440Z,99312.53
2023-05-22T01:44:15.318Z,99323.75
2023-05-22T01:44:57.788Z,99318.47
2023-05-22T01:45:39.465Z,99319.50
2023-05-22T01:46:21.540Z,99309.75
2023-05-22T01:47:05.373Z,99327.09
2023-05-22T01:47:47.090Z,99318.09
2023-05-22T01:48:29.315Z,99308.13
2023-05-22T01:49:11.095Z,99308.72
2023-05-22T01:49:53.683Z,99311.97
2023-05-22T01:50:35.662Z,99329.53
2023-05-22T01:51:39.712Z,99323.16
2023-05-22T01:52:30.088Z,99325.81
2023-05-22T01:53:33.167Z,99334.88
2023-05-22T01:54:24.095Z,99329.75
2023-05-22T01:55:13.619Z,99319.28
2023-05-22T01:56:12.610Z,99333.47
2023-05-22T01:56:55.777Z,99330.78
2023-05-22T01:58:00.158Z,99324.41
2023-05-22T01:58:57.926Z,99330.56
2023-05-22T02:00:07.273Z,99326.66
2023-05-22T02:01:00.939Z,99325.88
2023-05-22T02:01:43.614Z,99332.41
2023-05-22T02:02:26.844Z,99330.19
2023-05-22T02:03:24.022Z,99308.88
2023-05-22T02:04:06.513Z,99324.34
2023-05-22T02:04:56.574Z,99333.75
2023-05-22T02:05:39.867Z,99322.94
2023-05-22T02:06:21.901Z,99338.88
2023-05-22T02:07:04.476Z,99335.41
2023-05-22T02:07:47.748Z,99327.00
2023-05-22T02:08:31.153Z,99327.84
2023-05-22T02:09:16.862Z,99328.78
2023-05-22T02:09:59.645Z,99331.69
2023-05-22T02:10:43.420Z,99338.66
2023-05-22T02:11:28.471Z,99334.59
2023-05-22T02:12:11.039Z,99329.19
2023-05-22T02:12:53.513Z,99335.97
2023-05-22T02:13:35.986Z,99339.09
2023-05-22T02:14:18.542Z,99331.38
2023-05-22T02:15:00.850Z,99335.91
2023-05-22T02:15:46.330Z,99341.25
2023-05-22T02:16:30.270Z,99341.47
2023-05-22T02:17:18.086Z,99344.56
2023-05-22T02:18:01.828Z,99330.88
2023-05-22T02:18:44.357Z,99335.22
2023-05-22T02:19:26.230Z,99340.25
2023-05-22T02:20:15.547Z,99347.59
2023-05-22T02:20:59.386Z,99347.59
2023-05-22T02:21:41.325Z,99346.34
2023-05-22T02:22:22.989Z,99353.09
2023-05-22T02:23:05.172Z,99349.41
2023-05-22T02:23:49.691Z,99346.50
2023-05-22T02:24:36.619Z,99346.28
2023-05-22T02:25:18.461Z,99347.53
2023-05-22T02:26:02.263Z,99320.22
2023-05-22T02:26:44.238Z,99331.59
2023-05-22T02:27:25.901Z,99341.63
2023-05-22T02:28:09.644Z,99343.47
2023-05-22T02:28:51.473Z,99349.63
2023-05-22T02:29:33.418Z,99325.06
2023-05-22T02:30:15.699Z,99341.63
2023-05-22T02:30:59.274Z,99341.63
2023-05-22T02:31:41.107Z,99333.69
2023-05-22T02:32:23.036Z,99343.25
2023-05-22T02:33:06.124Z,99321.03
2023-05-22T02:33:48.366Z,99345.69
2023-05-22T02:34:33.544Z,99333.25
2023-05-22T02:35:15.796Z,99329.59
2023-05-22T02:35:59.903Z,99344.94
2023-05-22T02:36:44.737Z,99345.03
2023-05-22T02:37:27.020Z,99344.03
2023-05-22T02:38:08.780Z,99345.28
2023-05-22T02:38:50.551Z,99328.34
2023-05-22T02:39:32.323Z,99339.22
2023-05-22T02:40:15.580Z,99342.03
2023-05-22T02:40:57.349Z,99334.31
2023-05-22T02:41:39.076Z,99355.94
2023-05-22T02:42:20.841Z,99341.44
2023-05-22T02:43:02.668Z,99340.56
2023-05-22T02:43:44.425Z,99347.09
2023-05-22T02:44:27.369Z,99349.75
2023-05-22T02:45:09.847Z,99325.44
2023-05-22T02:45:51.611Z,99327.44
2023-05-22T02:46:35.942Z,99343.59
2023-05-22T02:47:18.367Z,99348.72
2023-05-22T02:48:03.511Z,99349.75
2023-05-22T02:48:45.550Z,99346.28
2023-05-22T02:49:27.245Z,99351.59
2023-05-22T02:50:09.359Z,99344.41
2023-05-22T02:50:51.077Z,99348.13
2023-05-22T02:51:32.829Z,99345.66
2023-05-22T02:52:14.629Z,99331.00
2023-05-22T02:52:56.537Z,99352.84
2023-05-22T02:53:41.221Z,99346.09
2023-05-22T02:54:22.995Z,99334.91
2023-05-22T02:55:05.899Z,99348.38
2023-05-22T02:55:48.391Z,99345.56
2023-05-22T02:56:30.466Z,99339.44
2023-05-22T02:57:12.179Z,99351.50
2023-05-22T02:57:53.894Z,99344.97
2023-05-22T02:58:35.926Z,99333.97
2023-05-22T02:59:17.806Z,99345.38
2023-05-22T02:59:59.523Z,99348.03
2023-05-22T03:00:41.556Z,99348.66
2023-05-22T03:01:23.683Z,99348.66
2023-05-22T03:02:05.916Z,99323.56
2023-05-22T03:02:50.856Z,99337.66
2023-05-22T03:03:33.996Z,99345.03
2023-05-22T03:04:15.845Z,99345.66
2023-05-22T03:04:59.021Z,99354.06
2023-05-22T03:05:40.915Z,99355.31
2023-05-22T03:06:27.880Z,99351.22
2023-05-22T03:07:10.010Z,99342.28
2023-05-22T03:07:52.823Z,99338.00
2023-05-22T03:08:38.116Z,99358.22
2023-05-22T03:09:20.326Z,99359.28
2023-05-22T03:10:02.215Z,99355.81
2023-05-22T03:10:44.175Z,99356.81
2023-05-22T03:11:26.030Z,99347.84
2023-05-22T03:12:08.524Z,99363.78
2023-05-22T03:12:51.869Z,99360.09
2023-05-22T03:13:33.556Z,99357.44
2023-05-22T03:14:15.531Z,99358.22
2023-05-22T03:14:57.306Z,99360.31
2023-05-22T03:15:39.119Z,99368.53
2023-05-22T03:16:28.016Z,99357.53
2023-05-22T03:17:09.803Z,99365.06
2023-05-22T03:17:54.503Z,99375.59
2023-05-22T03:18:36.366Z,99374.16
2023-05-22T03:19:18.238Z,99364.22
2023-05-22T03:20:00.068Z,99361.75
2023-05-22T03:20:42.233Z,99363.00
2023-05-22T03:21:23.941Z,99371.16
2023-05-22T03:22:06.526Z,99376.50
2023-05-22T03:22:49.157Z,99378.13
2023-05-22T03:23:31.612Z,99379.38
2023-05-22T03:24:13.350Z,99386.53
2023-05-22T03:24:55.338Z,99378.97
2023-05-22T03:25:37.039Z,99390.25
2023-05-22T03:26:18.886Z,99388.41
2023-05-22T03:27:00.968Z,99389.81
2023-05-22T03:27:51.104Z,99389.16
2023-05-22T03:28:35.150Z,99388.34
2023-05-22T03:29:19.344Z,99364.03
2023-05-22T03:30:01.933Z,99390.75
2023-05-22T03:30:44.518Z,99375.63
2023-05-22T03:31:33.697Z,99388.69
2023-05-22T03:32:24.284Z,99387.41
2023-05-22T03:33:06.171Z,99391.72
2023-05-22T03:33:50.161Z,99377.66
2023-05-22T03:34:32.394Z,99391.09
2023-05-22T03:35:19.682Z,99393.31
2023-05-22T03:36:01.668Z,99376.56
2023-05-22T03:36:45.295Z,99395.38
2023-05-22T03:37:28.391Z,99396.00
2023-05-22T03:38:13.073Z,99373.88
2023-05-22T03:38:55.140Z,99389.44
2023-05-22T03:39:39.409Z,99388.84
2023-05-22T03:40:31.883Z,99392.66
2023-05-22T03:41:13.629Z,99402.28
2023-05-22T03:41:55.350Z,99398.00
2023-05-22T03:42:39.106Z,99395.09
2023-05-22T03:43:21.719Z,99376.94
2023-05-22T03:44:04.284Z,99386.75
2023-05-22T03:44:46.113Z,99403.28
2023-05-22T03:45:27.925Z,99400.84
2023-05-22T03:46:12.494Z,99390.00
2023-05-22T03:46:54.278Z,99398.56
2023-05-22T03:47:36.188Z,99382.66
2023-05-22T03:48:17.958Z,99399.41
2023-05-22T03:48:59.892Z,99397.84
2023-05-22T03:49:41.773Z,99391.31
2023-05-22T03:50:26.440Z,99395.06
2023-05-22T03:51:08.134Z,99398.09
2023-05-22T03:51:51.993Z,99396.91
2023-05-22T03:52:34.037Z,99395.28
2023-05-22T03:53:15.764Z,99355.69
2023-05-22T03:53:57.522Z,99381.50
2023-05-22T03:54:42.082Z,99400.50
2023-05-22T03:55:23.862Z,99390.94
2023-05-22T03:56:08.244Z,99397.47
2023-05-22T03:56:52.701Z,99384.38
2023-05-22T03:57:37.540Z,99393.31
2023-05-22T03:58:19.303Z,99376.59
2023-05-22T03:59:01.034Z,99390.44
2023-05-22T03:59:42.713Z,99395.97
2023-05-22T04:00:27.267Z,99383.28
2023-05-22T04:01:10.149Z,99391.81
2023-05-22T04:01:52.020Z,99380.63
2023-05-22T04:02:34.042Z,99402.44
2023-05-22T04:03:21.269Z,99400.59
2023-05-22T04:04:05.470Z,99390.56
2023-05-22T04:04:47.262Z,99378.75
2023-05-22T04:05:30.359Z,99399.94
2023-05-22T04:06:13.743Z,99400.53
2023-05-22T04:06:58.066Z,99403.81
2023-05-22T04:07:39.935Z,99401.16
2023-05-22T04:08:21.695Z,99400.31
2023-05-22T04:09:03.639Z,99371.91
2023-05-22T04:09:45.529Z,99384.41
2023-05-22T04:10:27.266Z,99394.03
2023-05-22T04:11:09.134Z,99400.13
2023-05-22T04:11:50.874Z,99403.38
2023-05-22T04:12:32.921Z,99402.34
2023-05-22T04:13:16.301Z,99396.81
2023-05-22T04:14:03.814Z,99407.63
2023-05-22T04:14:49.998Z,99405.56
2023-05-22T04:15:35.291Z,99391.84
2023-05-22T04:16:17.703Z,99382.44
2023-05-22T04:17:02.643Z,99399.59
2023-05-22T04:17:44.538Z,99401.00
2023-05-22T04:18:28.651Z,99395.44
2023-05-22T04:19:12.385Z,99399.53
2023-05-22T04:19:58.222Z,99399.13
2023-05-22T04:20:40.653Z,99399.13
2023-05-22T04:21:23.634Z,99396.03
2023-05-22T04:22:05.356Z,99399.88
2023-05-22T04:22:48.841Z,99402.94
2023-05-22T04:23:30.631Z,99399.22
2023-05-22T04:24:12.365Z,99398.63
2023-05-22T04:24:54.154Z,99408.03
2023-05-22T04:25:36.559Z,99382.50
2023-05-22T04:26:20.669Z,99412.78
2023-05-22T04:27:08.557Z,99400.53
2023-05-22T04:27:50.660Z,99402.31
2023-05-22T04:28:34.714Z,99404.94
2023-05-22T04:29:16.658Z,99406.38
2023-05-22T04:29:59.971Z,99408.34
2023-05-22T04:30:41.886Z,99398.38
2023-05-22T04:31:23.847Z,99407.28
2023-05-22T04:32:08.881Z,99390.50
2023-05-22T04:32:50.899Z,99399.28
2023-05-22T04:33:34.424Z,99405.78
2023-05-22T04:34:16.902Z,99396.38
2023-05-22T04:35:00.479Z,99408.00
2023-05-22T04:35:42.340Z,99401.25
2023-05-22T04:36:26.049Z,99400.41
2023-05-22T04:37:07.829Z,99395.50
2023-05-22T04:37:50.205Z,99411.00
2023-05-22T04:38:36.658Z,99409.97
2023-05-22T04:39:20.641Z,99393.44
2023-05-22T04:40:07.491Z,99393.44
2023-05-22T04:40:50.245Z,99407.50
2023-05-22T04:41:32.432Z,99392.19
2023-05-22T04:42:14.562Z,99406.47
2023-05-22T04:42:59.955Z,99395.41
2023-05-22T04:43:48.371Z,99404.63
2023-05-22T04:44:31.653Z,99411.59
2023-05-22T04:45:13.992Z,99410.56
2023-05-22T04:45:56.525Z,99408.47
2023-05-22T04:46:38.403Z,99396.22
2023-05-22T04:47:22.272Z,99410.47
2023-05-22T04:48:04.257Z,99390.84
2023-05-22T04:48:51.004Z,99403.22
2023-05-22T04:49:33.691Z,99401.72
2023-05-22T04:50:16.336Z,99401.66
2023-05-22T04:50:58.500Z,99408.94
2023-05-22T04:51:40.264Z,99388.38
2023-05-22T04:52:22.559Z,99410.84
2023-05-22T04:53:05.851Z,99408.56
2023-05-22T04:53:49.707Z,99386.22
2023-05-22T04:54:32.024Z,99394.50
2023-05-22T04:55:14.431Z,99402.88
2023-05-22T04:55:56.979Z,99395.69
2023-05-22T04:56:38.750Z,99402.88
2023-05-22T04:57:21.649Z,99383.69
2023-05-22T04:58:03.673Z,99396.50
2023-05-22T04:58:45.947Z,99401.84
2023-05-22T04:59:37.944Z,99399.56
2023-05-22T05:00:19.942Z,99397.41
2023-05-22T05:01:03.381Z,99402.09
2023-05-22T05:01:46.154Z,99393.84
2023-05-22T05:02:28.186Z,99381.75
2023-05-22T05:03:14.524Z,99399.56
2023-05-22T05:03:57.001Z,99401.13
2023-05-22T05:04:38.740Z,99400.56
2023-05-22T05:05:20.817Z,99400.81
2023-05-22T05:06:03.169Z,99389.91
2023-05-22T05:06:47.975Z,99395.63
2023-05-22T05:07:30.856Z,99392.00
2023-05-22T05:08:12.582Z,99395.66
2023-05-22T05:08:54.945Z,99391.34
2023-05-22T05:09:36.697Z,99383.25
2023-05-22T05:10:18.851Z,99391.13
2023-05-22T05:11:00.574Z,99379.72
2023-05-22T05:11:42.281Z,99385.75
2023-05-22T05:12:25.482Z,99392.34
2023-05-22T05:13:07.251Z,99382.56
2023-05-22T05:13:53.387Z,99377.66
2023-05-22T05:14:35.072Z,99376.72
2023-05-22T05:15:16.985Z,99385.63
2023-05-22T05:15:59.614Z,99372.00
2023-05-22T05:16:41.378Z,99375.69
2023-05-22T05:17:23.927Z,99368.38
2023-05-22T05:18:07.253Z,99371.94
2023-05-22T05:18:49.084Z,99374.72
2023-05-22T05:19:30.891Z,99376.34
2023-05-22T05:20:14.523Z,99365.97
2023-05-22T05:20:56.478Z,99375.47
2023-05-22T05:21:39.022Z,99363.38
2023-05-22T05:22:20.784Z,99376.72
2023-05-22T05:23:02.511Z,99378.25
2023-05-22T05:23:44.184Z,99365.97
2023-05-22T05:24:25.973Z,99372.38
2023-05-22T05:25:09.592Z,99368.31
2023-05-22T05:25:54.092Z,99375.97
2023-05-22T05:26:35.834Z,99361.31
2023-05-22T05:27:17.721Z,99367.84
2023-05-22T05:28:02.697Z,99378.06
2023-05-22T05:28:44.470Z,99383.13
2023-05-22T05:29:26.441Z,99383.25
2023-05-22T05:30:20.910Z,99377.91
2023-05-22T05:31:25.460Z,99381.09
2023-05-22T05:32:23.457Z,99384.63
2023-05-22T05:33:08.806Z,99372.44
2023-05-22T05:34:16.867Z,99375.81
2023-05-22T05:35:13.555Z,99368.97
2023-05-22T05:36:05.063Z,99370.94
2023-05-22T05:36:48.840Z,99377.59
2023-05-22T05:37:31.440Z,99372.69
2023-05-22T05:38:18.885Z,99378.88
2023-05-22T05:39:00.708Z,99381.78
2023-05-22T05:39:46.519Z,99375.03
2023-05-22T05:40:29.003Z,99378.53
2023-05-22T05:41:10.751Z,99360.38
2023-05-22T05:41:52.750Z,99374.34
2023-05-22T05:42:37.217Z,99372.34
2023-05-22T05:43:20.636Z,99385.94
2023-05-22T05:44:05.791Z,99380.34
2023-05-22T05:44:47.957Z,99383.03
2023-05-22T05:45:30.211Z,99368.75
2023-05-22T05:46:12.900Z,99352.47
2023-05-22T05:46:56.867Z,99349.66
2023-05-22T05:47:38.793Z,99354.19
2023-05-22T05:48:20.613Z,99359.09
2023-05-22T05:49:12.561Z,99384.56
2023-05-22T05:49:55.940Z,99366.38
2023-05-22T05:50:39.952Z,99388.84
2023-05-22T05:51:22.287Z,99367.31
2023-05-22T05:52:05.224Z,99381.94
2023-05-22T05:52:49.764Z,99381.94
2023-05-22T05:53:33.017Z,99364.47
2023-05-22T05:54:14.744Z,99363.31
2023-05-22T05:54:56.449Z,99374.31
2023-05-22T05:55:38.154Z,99386.53
2023-05-22T05:56:19.953Z,99383.97
2023-05-22T05:57:01.644Z,99365.78
2023-05-22T05:57:44.140Z,99373.56
2023-05-22T05:58:31.402Z,99386.09
2023-05-22T05:59:35.978Z,99389.69
2023-05-22T06:00:49.830Z,99367.34
2023-05-22T06:01:35.081Z,99392.66
2023-05-22T06:02:19.299Z,99396.81
2023-05-22T06:03:02.503Z,99369.81
2023-05-22T06:03:57.612Z,99374.06
2023-05-22T06:04:48.255Z,99393.63
2023-05-22T06:05:32.375Z,99391.28
2023-05-22T06:06:31.155Z,99371.28
2023-05-22T06:07:33.158Z,99402.75
2023-05-22T06:08:15.540Z,99323.25
2023-05-22T06:08:57.255Z,99398.28
2023-05-22T06:09:45.121Z,99372.59
2023-05-22T06:10:34.249Z,99385.34
2023-05-22T06:11:26.341Z,99395.38
2023-05-22T06:12:12.733Z,99390.47
2023-05-22T06:12:56.871Z,99379.06
2023-05-22T06:13:38.553Z,99396.25
2023-05-22T06:14:20.844Z,99382.66
2023-05-22T06:15:02.541Z,99379.81
2023-05-22T06:15:47.123Z,99386.78
2023-05-22T06:16:29.947Z,99338.09
2023-05-22T06:17:11.749Z,99382.94
2023-05-22T06:17:56.228Z,99406.00
2023-05-22T06:18:38.392Z,99396.97
2023-05-22T06:19:20.219Z,99382.34
2023-05-22T06:20:01.919Z,99403.03
2023-05-22T06:20:44.473Z,99403.38
2023-05-22T06:21:26.529Z,99398.81
2023-05-22T06:22:08.705Z,99394.50
2023-05-22T06:22:52.085Z,99400.31
2023-05-22T06:23:33.748Z,99406.56
2023-05-22T06:24:15.593Z,99383.31
2023-05-22T06:24:57.612Z,99370.13
2023-05-22T06:25:42.112Z,99399.63
2023-05-22T06:26:25.859Z,99404.06
2023-05-22T06:27:07.826Z,99391.69
2023-05-22T06:27:50.677Z,99340.50
2023-05-22T06:28:32.786Z,99400.44
2023-05-22T06:29:18.869Z,99405.09
2023-05-22T06:30:04.192Z,99369.38
2023-05-22T06:30:50.106Z,99400.63
2023-05-22T06:31:38.142Z,99403.38
2023-05-22T06:32:20.738Z,99385.81
2023-05-22T06:33:07.196Z,99380.44
2023-05-22T06:33:49.071Z,99398.09
2023-05-22T06:34:30.926Z,99395.41
2023-05-22T06:35:14.031Z,99400.84
2023-05-22T06:35:56.581Z,99403.03
2023-05-22T06:36:38.422Z,99406.31
2023-05-22T06:37:20.088Z,99399.38
2023-05-22T06:38:02.785Z,99391.81
2023-05-22T06:38:46.042Z,99376.16
2023-05-22T06:39:47.471Z,99391.44
2023-05-22T06:40:40.309Z,99384.72
2023-05-22T06:41:29.946Z,99394.00
2023-05-22T06:42:11.630Z,99322.34
2023-05-22T06:43:12.358Z,99394.03
2023-05-22T06:44:06.459Z,99382.25
2023-05-22T06:44:53.063Z,99399.34
2023-05-22T06:45:37.642Z,99289.28
2023-05-22T06:46:34.644Z,99396.16
2023-05-22T06:47:18.275Z,99396.22
2023-05-22T06:47:59.947Z,99400.56
2023-05-22T06:48:41.981Z,99382.69
2023-05-22T06:49:28.565Z,99330.28
2023-05-22T06:50:11.129Z,99389.19
2023-05-22T06:50:52.902Z,99380.28
2023-05-22T06:51:34.932Z,99394.31
2023-05-22T06:52:21.329Z,99397.25
2023-05-22T06:53:02.991Z,99382.63
2023-05-22T06:53:47.359Z,99379.38
2023-05-22T06:54:33.714Z,99399.41
2023-05-22T06:55:15.560Z,99379.38
2023-05-22T06:56:09.721Z,99394.84
2023-05-22T06:57:24.081Z,99384.06
2023-05-22T06:58:05.966Z,99379.28
2023-05-22T06:58:49.665Z,99392.59
2023-05-22T06:59:31.343Z,99329.13
2023-05-22T07:00:22.251Z,99398.34
2023-05-22T07:01:16.611Z,99394.09
2023-05-22T07:02:07.840Z,99397.13
2023-05-22T07:03:24.733Z,99403.09
2023-05-22T07:04:25.095Z,99382.59
2023-05-22T07:05:12.225Z,99384.25
2023-05-22T07:06:20.282Z,99386.72
2023-05-22T07:07:02.634Z,99405.09
2023-05-22T07:07:44.702Z,99412.94
2023-05-22T07:08:28.330Z,99272.50
2023-05-22T07:09:15.604Z,99408.13
2023-05-22T07:09:57.429Z,99405.41
2023-05-22T07:10:39.563Z,99399.78
2023-05-22T07:11:22.301Z,99411.91
2023-05-22T07:12:04.296Z,99416.53
2023-05-22T07:12:46.126Z,99402.75
2023-05-22T07:13:28.633Z,99410.56
2023-05-22T07:14:12.488Z,99415.44
2023-05-22T07:14:55.382Z,99420.56
2023-05-22T07:15:39.014Z,99407.06
2023-05-22T07:16:23.198Z,99424.06
2023-05-22T07:17:05.226Z,99403.78
2023-05-22T07:17:52.521Z,99407.06
2023-05-22T07:18:34.277Z,99392.16
2023-05-22T07:19:16.109Z,99417.03
2023-05-22T07:20:00.862Z,99418.13
2023-05-22T07:20:44.869Z,99411.66
2023-05-22T07:21:31.914Z,99398.16
2023-05-22T07:22:13.906Z,99408.16
2023-05-22T07:22:58.335Z,99407.63
2023-05-22T07:23:40.254Z,99420.84
2023-05-22T07:24:23.708Z,99418.94
2023-05-22T07:25:08.915Z,99421.09
2023-05-22T07:25:50.711Z,99401.41
2023-05-22T07:26:36.493Z,99401.13
2023-05-22T07:27:22.338Z,99423.00
2023-05-22T07:28:08.759Z,99374.69
2023-05-22T07:28:55.268Z,99411.38
2023-05-22T07:29:37.942Z,99420.56
2023-05-22T07:30:24.281Z,99420.84
2023-05-22T07:31:06.468Z,99421.13
2023-05-22T07:31:48.235Z,99425.72
2023-05-22T07:32:30.027Z,99422.72
2023-05-22T07:33:13.935Z,99422.44
2023-05-22T07:33:55.988Z,99427.84
2023-05-22T07:34:37.886Z,99406.00
2023-05-22T07:35:21.815Z,99426.53
2023-05-22T07:36:03.670Z,99427.59
2023-05-22T07:36:45.889Z,99416.78
2023-05-22T07:37:27.682Z,99349.81
2023-05-22T07:38:09.326Z,99427.28
2023-05-22T07:38:52.837Z,99431.31
2023-05-22T07:39:34.605Z,99421.31
2023-05-22T07:40:16.540Z,99381.09
2023-05-22T07:41:02.771Z,99424.22
2023-05-22T07:41:50.267Z,99429.63
2023-05-22T07:42:34.202Z,99429.84
2023-05-22T07:43:17.266Z,99429.31
2023-05-22T07:43:59.727Z,99438.75
2023-05-22T07:44:46.428Z,99435.50
2023-05-22T07:45:28.258Z,99442.00
2023-05-22T07:46:16.744Z,99432.53
2023-05-22T07:47:30.085Z,99434.63
2023-05-22T07:48:23.764Z,99440.84
2023-05-22T07:49:06.157Z,99438.75
2023-05-22T07:49:48.575Z,99422.09
2023-05-22T07:50:30.804Z,99439.09
2023-05-22T07:51:13.594Z,99435.31
2023-05-22T07:51:55.855Z,99428.28
2023-05-22T07:52:49.798Z,99442.28
2023-05-22T07:53:31.957Z,99438.16
2023-05-22T07:54:16.337Z,99442.44
2023-05-22T07:55:00.797Z,99426.13
2023-05-22T07:55:43.969Z,99438.41
2023-05-22T07:56:27.336Z,99439.16
2023-05-22T07:57:12.188Z,99442.31
2023-05-22T07:57:54.657Z,99440.13
2023-05-22T07:58:44.002Z,99446.47
2023-05-22T07:59:25.943Z,99444.38
2023-05-22T08:00:14.910Z,99437.94
2023-05-22T08:00:56.638Z,99448.97
2023-05-22T08:01:39.072Z,99442.94
2023-05-22T08:02:20.859Z,99423.47
2023-05-22T08:03:02.844Z,99432.75
2023-05-22T08:03:44.878Z,99437.31
2023-05-22T08:04:27.554Z,99431.09
2023-05-22T08:05:09.874Z,99447.78
2023-05-22T08:05:51.587Z,99421.59
2023-05-22T08:06:36.844Z,99438.56
2023-05-22T08:07:21.466Z,99446.56
2023-05-22T08:08:04.168Z,99417.50
2023-05-22T08:08:45.927Z,99452.16
2023-05-22T08:09:28.987Z,99458.16
2023-05-22T08:10:15.316Z,99450.19
2023-05-22T08:11:04.005Z,99397.81
2023-05-22T08:11:46.039Z,99453.19
2023-05-22T08:12:27.703Z,99438.78
2023-05-22T08:13:10.221Z,99455.69
2023-05-22T08:13:51.906Z,99453.13
2023-05-22T08:14:33.686Z,99454.47
2023-05-22T08:15:18.269Z,99457.06
2023-05-22T08:16:01.315Z,99447.72
2023-05-22T08:16:43.284Z,99454.25
2023-05-22T08:17:25.057Z,99448.00
2023-05-22T08:18:06.891Z,99433.63
2023-05-22T08:18:49.749Z,99437.72
2023-05-22T08:19:31.938Z,99455.47
2023-05-22T08:20:14.120Z,99447.28
2023-05-22T08:20:55.936Z,99455.84
2023-05-22T08:21:37.800Z,99448.75
2023-05-22T08:22:19.582Z,99426.03
2023-05-22T08:23:01.243Z,99453.56
2023-05-22T08:23:42.988Z,99449.84
2023-05-22T08:24:28.618Z,99458.94
2023-05-22T08:25:10.511Z,99462.91
2023-05-22T08:25:52.192Z,99457.09
2023-05-22T08:26:33.907Z,99456.66
2023-05-22T08:27:16.966Z,99461.94
2023-05-22T08:27:58.600Z,99457.88
2023-05-22T08:28:44.068Z,99460.63
2023-05-22T08:29:28.730Z,99465.09
2023-05-22T08:30:10.545Z,99441.25
2023-05-22T08:30:52.187Z,99461.38
2023-05-22T08:31:36.851Z,99455.28
2023-05-22T08:32:18.893Z,99434.84
2023-05-22T08:33:03.234Z,99458.50
2023-05-22T08:33:44.938Z,99455.47
2023-05-22T08:34:26.577Z,99458.66
2023-05-22T08:35:08.575Z,99452.25
2023-05-22T08:35:50.267Z,99437.72
2023-05-22T08:36:33.778Z,99439.50
2023-05-22T08:37:15.555Z,99441.19
2023-05-22T08:38:00.177Z,99436.13
2023-05-22T08:38:41.829Z,99448.69
2023-05-22T08:39:23.487Z,99434.44
2023-05-22T08:40:06.871Z,99442.16
2023-05-22T08:40:51.987Z,99436.59
2023-05-22T08:41:36.224Z,99438.28
2023-05-22T08:42:17.882Z,99446.63
2023-05-22T08:43:05.161Z,99427.44
2023-05-22T08:43:46.800Z,99414.84